« Back
NWS Peachtree City, Ga » Text Product » AHN Terminal Aerodrome Forecast


Printer-friendly Version
Current Version              Previous Versions:   1  2  3  4  5  6  7  8  9  

Terminal Aerodrome Forecast

080
FTUS42 KFFC 261500 AAA
TAFAHN
TAF AMD
KAHN 261500Z 2615/2712 08007KT P6SM SCT025 BKN050
      TEMPO 2615/2617 BKN025
     FM261700 09008KT P6SM FEW035 SCT050
     FM270200 09004KT P6SM FEW060=



USA.gov is the U.S. government's official web portal to all federal, state and local government web resources and services.